sensor_id;sensor_type;location;lat;lon;timestamp;pressure;altitude;pressure_sealevel;temperature;humidity
26699;BME280;14313;50.892;13.756;2022-10-16T06:00:59;97708.03;;;18.08;80.85
26699;BME280;14313;50.892;13.756;2022-10-16T06:03:25;97716.06;;;18.21;79.75
26699;BME280;14313;50.892;13.756;2022-10-16T06:05:50;97721.06;;;18.31;80.03
26699;BME280;14313;50.892;13.756;2022-10-16T06:08:17;97720.44;;;18.29;80.21
26699;BME280;14313;50.892;13.756;2022-10-16T06:10:44;97718.63;;;18.36;79.97
26699;BME280;14313;50.892;13.756;2022-10-16T06:13:10;97714.72;;;18.45;79.74
26699;BME280;14313;50.892;13.756;2022-10-16T06:15:35;97718.69;;;18.62;79.58
26699;BME280;14313;50.892;13.756;2022-10-16T06:18:01;97722.38;;;18.55;79.74
26699;BME280;14313;50.892;13.756;2022-10-16T06:20:26;97720.56;;;18.62;79.65
26699;BME280;14313;50.892;13.756;2022-10-16T06:22:51;97716.44;;;18.66;79.68
26699;BME280;14313;50.892;13.756;2022-10-16T06:25:17;97715.03;;;18.77;79.84
26699;BME280;14313;50.892;13.756;2022-10-16T06:27:42;97722.81;;;18.71;79.82
26699;BME280;14313;50.892;13.756;2022-10-16T06:30:08;97726.94;;;18.87;79.14
26699;BME280;14313;50.892;13.756;2022-10-16T06:32:33;97734.97;;;19.00;78.56
26699;BME280;14313;50.892;13.756;2022-10-16T06:34:58;97735.81;;;19.07;78.67
26699;BME280;14313;50.892;13.756;2022-10-16T06:37:24;97733.53;;;19.11;78.49
26699;BME280;14313;50.892;13.756;2022-10-16T06:39:50;97731.88;;;19.10;78.31
26699;BME280;14313;50.892;13.756;2022-10-16T06:42:17;97732.50;;;19.12;79.01
26699;BME280;14313;50.892;13.756;2022-10-16T06:44:43;97741.13;;;19.21;78.93
26699;BME280;14313;50.892;13.756;2022-10-16T06:47:08;97740.53;;;19.05;79.76
26699;BME280;14313;50.892;13.756;2022-10-16T06:49:33;97750.59;;;19.30;79.07
26699;BME280;14313;50.892;13.756;2022-10-16T06:51:59;97749.16;;;19.34;77.94
26699;BME280;14313;50.892;13.756;2022-10-16T06:54:24;97750.72;;;19.94;75.86
26699;BME280;14313;50.892;13.756;2022-10-16T06:56:51;97752.75;;;20.05;74.24
26699;BME280;14313;50.892;13.756;2022-10-16T06:59:16;97762.41;;;20.57;72.34
26699;BME280;14313;50.892;13.756;2022-10-16T07:01:41;97756.13;;;20.38;72.47
26699;BME280;14313;50.892;13.756;2022-10-16T07:04:07;97766.88;;;21.01;70.96
26699;BME280;14313;50.892;13.756;2022-10-16T07:06:33;97769.94;;;21.05;70.63
26699;BME280;14313;50.892;13.756;2022-10-16T07:09:02;97763.00;;;21.29;68.90
26699;BME280;14313;50.892;13.756;2022-10-16T07:11:27;97769.75;;;21.56;68.27
26699;BME280;14313;50.892;13.756;2022-10-16T07:13:53;97774.69;;;21.34;67.68
26699;BME280;14313;50.892;13.756;2022-10-16T07:16:21;97763.41;;;21.93;67.03
26699;BME280;14313;50.892;13.756;2022-10-16T07:18:46;97781.53;;;21.98;66.55
26699;BME280;14313;50.892;13.756;2022-10-16T07:21:16;97786.69;;;22.18;66.31
26699;BME280;14313;50.892;13.756;2022-10-16T07:23:42;97790.94;;;21.39;68.41
26699;BME280;14313;50.892;13.756;2022-10-16T07:26:09;97796.91;;;22.27;66.14
26699;BME280;14313;50.892;13.756;2022-10-16T07:28:35;97805.22;;;22.26;66.41
26699;BME280;14313;50.892;13.756;2022-10-16T07:31:06;97809.16;;;22.41;65.80
26699;BME280;14313;50.892;13.756;2022-10-16T07:33:32;97807.41;;;22.47;65.64
26699;BME280;14313;50.892;13.756;2022-10-16T07:35:58;97809.19;;;22.53;65.44
26699;BME280;14313;50.892;13.756;2022-10-16T07:38:23;97809.00;;;22.18;66.69
26699;BME280;14313;50.892;13.756;2022-10-16T07:40:58;97824.88;;;22.74;65.96
26699;BME280;14313;50.892;13.756;2022-10-16T07:43:25;97822.22;;;22.56;65.35
26699;BME280;14313;50.892;13.756;2022-10-16T07:45:51;97813.28;;;22.92;65.07
26699;BME280;14313;50.892;13.756;2022-10-16T07:48:17;97819.91;;;22.89;64.23
26699;BME280;14313;50.892;13.756;2022-10-16T07:50:44;97835.94;;;23.26;64.43
26699;BME280;14313;50.892;13.756;2022-10-16T07:53:10;97834.22;;;23.31;64.07
26699;BME280;14313;50.892;13.756;2022-10-16T07:55:35;97832.44;;;22.66;65.05
26699;BME280;14313;50.892;13.756;2022-10-16T07:58:01;97837.53;;;22.19;66.28
26699;BME280;14313;50.892;13.756;2022-10-16T08:00:26;97838.78;;;22.35;66.63
26699;BME280;14313;50.892;13.756;2022-10-16T08:02:52;97841.53;;;22.65;65.98
26699;BME280;14313;50.892;13.756;2022-10-16T08:05:17;97848.66;;;22.77;65.69
26699;BME280;14313;50.892;13.756;2022-10-16T08:07:42;97833.91;;;22.98;65.05
26699;BME280;14313;50.892;13.756;2022-10-16T08:10:16;97835.69;;;22.86;65.29
26699;BME280;14313;50.892;13.756;2022-10-16T08:12:42;97826.63;;;22.50;66.58
26699;BME280;14313;50.892;13.756;2022-10-16T08:15:08;97817.59;;;22.93;65.64
26699;BME280;14313;50.892;13.756;2022-10-16T08:17:33;97818.53;;;22.87;65.79
26699;BME280;14313;50.892;13.756;2022-10-16T08:19:58;97829.34;;;23.10;65.21
26699;BME280;14313;50.892;13.756;2022-10-16T08:22:24;97832.50;;;23.07;64.97
26699;BME280;14313;50.892;13.756;2022-10-16T08:24:49;97819.88;;;22.60;66.38
26699;BME280;14313;50.892;13.756;2022-10-16T08:27:14;97826.56;;;22.69;65.89
26699;BME280;14313;50.892;13.756;2022-10-16T08:29:40;97830.88;;;23.06;64.77
26699;BME280;14313;50.892;13.756;2022-10-16T08:32:05;97832.34;;;23.32;64.38
26699;BME280;14313;50.892;13.756;2022-10-16T08:34:30;97832.22;;;22.67;66.23
26699;BME280;14313;50.892;13.756;2022-10-16T08:36:56;97830.25;;;23.04;65.30
26699;BME280;14313;50.892;13.756;2022-10-16T08:39:21;97834.44;;;23.18;64.50
26699;BME280;14313;50.892;13.756;2022-10-16T08:41:56;97844.75;;;23.45;64.01
26699;BME280;14313;50.892;13.756;2022-10-16T08:47:23;97846.13;;;23.89;62.80
26699;BME280;14313;50.892;13.756;2022-10-16T08:49:59;97837.94;;;23.72;62.75
26699;BME280;14313;50.892;13.756;2022-10-16T08:52:29;97852.34;;;23.77;62.75
26699;BME280;14313;50.892;13.756;2022-10-16T08:54:57;97853.72;;;23.57;63.94
26699;BME280;14313;50.892;13.756;2022-10-16T08:57:25;97858.09;;;24.16;62.33
26699;BME280;14313;50.892;13.756;2022-10-16T08:59:52;97855.59;;;23.56;62.86
26699;BME280;14313;50.892;13.756;2022-10-16T09:02:38;97850.22;;;23.91;62.71
26699;BME280;14313;50.892;13.756;2022-10-16T09:05:21;97852.69;;;23.81;63.03
26699;BME280;14313;50.892;13.756;2022-10-16T09:08:12;97858.31;;;24.38;61.21
26699;BME280;14313;50.892;13.756;2022-10-16T09:10:57;97840.72;;;24.12;62.64
26699;BME280;14313;50.892;13.756;2022-10-16T09:13:29;97846.75;;;23.37;64.13
26699;BME280;14313;50.892;13.756;2022-10-16T09:18:51;97851.50;;;24.12;61.88
26699;BME280;14313;50.892;13.756;2022-10-16T09:21:24;97851.56;;;24.63;61.69
26699;BME280;14313;50.892;13.756;2022-10-16T09:23:50;97846.03;;;24.82;60.85
26699;BME280;14313;50.892;13.756;2022-10-16T09:26:16;97852.69;;;24.51;60.16
26699;BME280;14313;50.892;13.756;2022-10-16T09:28:43;97852.38;;;25.32;58.81
26699;BME280;14313;50.892;13.756;2022-10-16T09:31:19;97855.88;;;25.78;57.73
26699;BME280;14313;50.892;13.756;2022-10-16T09:33:50;97855.69;;;26.01;56.75
26699;BME280;14313;50.892;13.756;2022-10-16T09:36:17;97858.88;;;25.48;58.19
26699;BME280;14313;50.892;13.756;2022-10-16T09:38:44;97855.59;;;26.29;56.18
26699;BME280;14313;50.892;13.756;2022-10-16T09:43:42;97869.03;;;25.91;56.92
26699;BME280;14313;50.892;13.756;2022-10-16T09:46:35;97857.91;;;25.54;56.72
26699;BME280;14313;50.892;13.756;2022-10-16T09:49:21;97859.56;;;25.27;57.68
26699;BME280;14313;50.892;13.756;2022-10-16T09:51:47;97859.13;;;26.30;55.34
26699;BME280;14313;50.892;13.756;2022-10-16T09:54:19;97867.09;;;27.02;53.78
26699;BME280;14313;50.892;13.756;2022-10-16T09:56:46;97861.31;;;27.47;52.96
26699;BME280;14313;50.892;13.756;2022-10-16T09:59:23;97877.53;;;26.71;53.43
26699;BME280;14313;50.892;13.756;2022-10-16T10:01:51;97871.41;;;26.59;53.84
26699;BME280;14313;50.892;13.756;2022-10-16T10:04:22;97873.69;;;26.67;54.23
26699;BME280;14313;50.892;13.756;2022-10-16T10:06:53;97877.75;;;26.48;54.77
26699;BME280;14313;50.892;13.756;2022-10-16T10:14:36;97878.47;;;26.22;55.64
26699;BME280;14313;50.892;13.756;2022-10-16T10:17:10;97889.09;;;26.12;56.28
26699;BME280;14313;50.892;13.756;2022-10-16T10:25:01;97905.91;;;25.97;56.92
26699;BME280;14313;50.892;13.756;2022-10-16T10:27:52;97906.72;;;25.98;56.34
26699;BME280;14313;50.892;13.756;2022-10-16T10:30:26;97904.75;;;25.93;57.23
26699;BME280;14313;50.892;13.756;2022-10-16T10:35:31;97909.34;;;25.59;57.67
26699;BME280;14313;50.892;13.756;2022-10-16T10:38:16;97912.53;;;25.73;57.87
26699;BME280;14313;50.892;13.756;2022-10-16T10:41:04;97903.78;;;25.37;58.70
26699;BME280;14313;50.892;13.756;2022-10-16T10:56:05;97926.81;;;24.88;57.13
26699;BME280;14313;50.892;13.756;2022-10-16T11:01:17;97939.16;;;25.24;56.30
26699;BME280;14313;50.892;13.756;2022-10-16T11:06:40;97942.41;;;24.86;57.72
26699;BME280;14313;50.892;13.756;2022-10-16T11:09:18;97939.28;;;25.46;56.37
26699;BME280;14313;50.892;13.756;2022-10-16T11:11:54;97940.34;;;25.57;55.85
26699;BME280;14313;50.892;13.756;2022-10-16T11:14:26;97931.25;;;25.63;55.61
26699;BME280;14313;50.892;13.756;2022-10-16T11:16:59;97936.25;;;25.71;55.07
26699;BME280;14313;50.892;13.756;2022-10-16T11:22:01;97943.06;;;26.07;55.12
26699;BME280;14313;50.892;13.756;2022-10-16T11:24:36;97940.31;;;26.35;53.86
26699;BME280;14313;50.892;13.756;2022-10-16T11:27:08;97947.59;;;26.18;54.32
26699;BME280;14313;50.892;13.756;2022-10-16T11:29:35;97943.31;;;26.55;53.71
26699;BME280;14313;50.892;13.756;2022-10-16T11:32:18;97942.75;;;27.13;52.74
26699;BME280;14313;50.892;13.756;2022-10-16T11:34:50;97934.28;;;27.32;51.72
26699;BME280;14313;50.892;13.756;2022-10-16T11:37:20;97931.44;;;26.78;52.95
26699;BME280;14313;50.892;13.756;2022-10-16T11:39:50;97944.88;;;26.01;54.78
26699;BME280;14313;50.892;13.756;2022-10-16T11:42:25;97933.59;;;26.04;54.50
26699;BME280;14313;50.892;13.756;2022-10-16T11:47:43;97941.53;;;26.27;53.95
26699;BME280;14313;50.892;13.756;2022-10-16T11:55:52;97936.00;;;26.94;51.98
26699;BME280;14313;50.892;13.756;2022-10-16T11:58:28;97933.34;;;28.02;49.86
26699;BME280;14313;50.892;13.756;2022-10-16T12:01:15;97937.75;;;27.49;50.59
26699;BME280;14313;50.892;13.756;2022-10-16T12:04:01;97938.75;;;28.28;49.18
26699;BME280;14313;50.892;13.756;2022-10-16T12:06:37;97938.59;;;28.45;48.49
26699;BME280;14313;50.892;13.756;2022-10-16T12:09:14;97939.69;;;28.49;48.40
26699;BME280;14313;50.892;13.756;2022-10-16T12:11:40;97938.06;;;27.79;49.90
26699;BME280;14313;50.892;13.756;2022-10-16T12:17:00;97934.28;;;27.32;50.88
26699;BME280;14313;50.892;13.756;2022-10-16T12:19:28;97938.47;;;27.18;51.40
26699;BME280;14313;50.892;13.756;2022-10-16T12:21:56;97945.84;;;27.49;50.36
26699;BME280;14313;50.892;13.756;2022-10-16T12:24:39;97945.38;;;28.11;48.81
26699;BME280;14313;50.892;13.756;2022-10-16T12:27:26;97937.94;;;27.42;49.04
26699;BME280;14313;50.892;13.756;2022-10-16T12:29:58;97958.09;;;26.86;50.90
26699;BME280;14313;50.892;13.756;2022-10-16T12:32:31;97956.69;;;26.62;51.65
26699;BME280;14313;50.892;13.756;2022-10-16T12:34:59;97959.25;;;26.90;51.08
26699;BME280;14313;50.892;13.756;2022-10-16T12:37:34;97953.41;;;26.82;52.29
26699;BME280;14313;50.892;13.756;2022-10-16T12:40:12;97954.88;;;26.67;52.18
26699;BME280;14313;50.892;13.756;2022-10-16T12:42:39;97958.00;;;26.81;51.59
26699;BME280;14313;50.892;13.756;2022-10-16T12:47:50;97953.13;;;29.23;47.14
26699;BME280;14313;50.892;13.756;2022-10-16T12:50:36;97956.47;;;27.77;49.86
26699;BME280;14313;50.892;13.756;2022-10-16T12:53:04;97963.72;;;27.01;51.22
26699;BME280;14313;50.892;13.756;2022-10-16T12:56:16;97972.28;;;27.15;51.66
26699;BME280;14313;50.892;13.756;2022-10-16T12:58:52;97969.97;;;26.85;52.34
26699;BME280;14313;50.892;13.756;2022-10-16T13:01:42;97966.63;;;26.23;53.44
26699;BME280;14313;50.892;13.756;2022-10-16T13:09:58;97962.59;;;26.81;53.39
26699;BME280;14313;50.892;13.756;2022-10-16T13:18:02;97979.00;;;27.34;51.71
26699;BME280;14313;50.892;13.756;2022-10-16T13:21:01;97985.03;;;27.20;52.09
26699;BME280;14313;50.892;13.756;2022-10-16T13:23:37;97964.44;;;27.40;51.23
26699;BME280;14313;50.892;13.756;2022-10-16T13:28:47;97962.31;;;29.12;47.69
26699;BME280;14313;50.892;13.756;2022-10-16T13:31:17;97972.28;;;28.91;48.24
26699;BME280;14313;50.892;13.756;2022-10-16T13:33:47;97975.19;;;29.37;47.82
26699;BME280;14313;50.892;13.756;2022-10-16T13:36:23;97968.03;;;31.43;44.14
26699;BME280;14313;50.892;13.756;2022-10-16T13:39:00;97970.97;;;31.57;42.78
26699;BME280;14313;50.892;13.756;2022-10-16T13:41:28;97962.94;;;31.75;42.57
26699;BME280;14313;50.892;13.756;2022-10-16T13:43:55;97966.09;;;30.24;44.43
26699;BME280;14313;50.892;13.756;2022-10-16T13:46:23;97962.78;;;29.76;45.99
26699;BME280;14313;50.892;13.756;2022-10-16T13:48:59;97961.41;;;29.53;46.17
26699;BME280;14313;50.892;13.756;2022-10-16T13:51:26;97965.28;;;28.63;48.30
26699;BME280;14313;50.892;13.756;2022-10-16T13:53:52;97958.94;;;28.11;50.08
26699;BME280;14313;50.892;13.756;2022-10-16T13:56:20;97972.63;;;28.26;49.86
26699;BME280;14313;50.892;13.756;2022-10-16T13:58:46;97967.06;;;28.11;50.13
26699;BME280;14313;50.892;13.756;2022-10-16T14:01:25;97977.63;;;27.53;51.95
26699;BME280;14313;50.892;13.756;2022-10-16T14:03:51;97983.06;;;27.80;51.68
26699;BME280;14313;50.892;13.756;2022-10-16T14:06:19;97987.44;;;26.94;52.58
26699;BME280;14313;50.892;13.756;2022-10-16T14:08:53;97980.03;;;27.28;52.33
26699;BME280;14313;50.892;13.756;2022-10-16T14:11:22;97986.38;;;26.95;53.53
26699;BME280;14313;50.892;13.756;2022-10-16T14:13:49;97996.09;;;27.13;52.83
26699;BME280;14313;50.892;13.756;2022-10-16T14:16:18;97991.09;;;26.66;54.70
26699;BME280;14313;50.892;13.756;2022-10-16T14:18:49;97996.16;;;26.63;55.73
26699;BME280;14313;50.892;13.756;2022-10-16T14:21:15;97997.56;;;26.65;55.90
26699;BME280;14313;50.892;13.756;2022-10-16T14:23:41;97997.47;;;26.77;55.55
26699;BME280;14313;50.892;13.756;2022-10-16T14:28:33;97990.22;;;28.23;51.67
26699;BME280;14313;50.892;13.756;2022-10-16T14:31:00;97995.31;;;28.47;50.86
26699;BME280;14313;50.892;13.756;2022-10-16T14:36:05;97990.69;;;27.40;51.22
26699;BME280;14313;50.892;13.756;2022-10-16T14:38:32;98001.00;;;27.38;51.53
26699;BME280;14313;50.892;13.756;2022-10-16T14:40:58;97991.81;;;27.39;51.39
26699;BME280;14313;50.892;13.756;2022-10-16T14:43:38;97993.06;;;27.31;51.04
26699;BME280;14313;50.892;13.756;2022-10-16T14:46:12;97992.16;;;27.04;51.62
26699;BME280;14313;50.892;13.756;2022-10-16T14:51:41;98003.75;;;27.43;51.20
26699;BME280;14313;50.892;13.756;2022-10-16T14:54:14;98008.41;;;26.49;52.79
26699;BME280;14313;50.892;13.756;2022-10-16T14:56:54;98015.38;;;26.61;52.64
26699;BME280;14313;50.892;13.756;2022-10-16T14:59:23;98010.69;;;26.57;53.35
26699;BME280;14313;50.892;13.756;2022-10-16T15:01:50;98021.00;;;26.77;52.96
26699;BME280;14313;50.892;13.756;2022-10-16T15:04:15;98028.31;;;26.43;54.28
26699;BME280;14313;50.892;13.756;2022-10-16T15:06:42;98024.78;;;26.59;53.49
26699;BME280;14313;50.892;13.756;2022-10-16T15:09:08;98026.19;;;26.61;54.02
26699;BME280;14313;50.892;13.756;2022-10-16T15:11:33;98022.16;;;26.64;53.67
26699;BME280;14313;50.892;13.756;2022-10-16T15:13:59;98027.91;;;26.67;55.27
26699;BME280;14313;50.892;13.756;2022-10-16T15:16:24;98035.13;;;26.45;57.80
26699;BME280;14313;50.892;13.756;2022-10-16T15:18:50;98040.06;;;26.32;62.04
26699;BME280;14313;50.892;13.756;2022-10-16T15:21:27;98043.84;;;26.19;63.03
26699;BME280;14313;50.892;13.756;2022-10-16T15:23:53;98042.94;;;26.13;62.76
26699;BME280;14313;50.892;13.756;2022-10-16T15:26:19;98039.41;;;26.13;63.06
26699;BME280;14313;50.892;13.756;2022-10-16T15:28:44;98041.94;;;26.03;64.02
26699;BME280;14313;50.892;13.756;2022-10-16T15:31:09;98048.22;;;25.92;64.61
26699;BME280;14313;50.892;13.756;2022-10-16T15:33:35;98042.63;;;25.81;65.05
26699;BME280;14313;50.892;13.756;2022-10-16T15:36:01;98045.34;;;25.81;65.35
26699;BME280;14313;50.892;13.756;2022-10-16T15:38:28;98054.69;;;25.62;65.83
26699;BME280;14313;50.892;13.756;2022-10-16T15:40:53;98063.84;;;25.49;65.40
26699;BME280;14313;50.892;13.756;2022-10-16T15:43:19;98063.47;;;25.18;62.46
26699;BME280;14313;50.892;13.756;2022-10-16T15:48:27;98075.09;;;24.95;63.96
26699;BME280;14313;50.892;13.756;2022-10-16T15:50:53;98089.03;;;24.80;60.34
26699;BME280;14313;50.892;13.756;2022-10-16T15:53:18;98076.97;;;24.71;62.91
26699;BME280;14313;50.892;13.756;2022-10-16T15:55:44;98072.94;;;24.50;65.06
26699;BME280;14313;50.892;13.756;2022-10-16T15:58:09;98080.03;;;24.21;67.71
26699;BME280;14313;50.892;13.756;2022-10-16T16:00:34;98079.06;;;23.86;67.66
26699;BME280;14313;50.892;13.756;2022-10-16T16:03:00;98076.63;;;23.66;67.05
26699;BME280;14313;50.892;13.756;2022-10-16T16:05:25;98075.47;;;23.44;68.22
26699;BME280;14313;50.892;13.756;2022-10-16T16:07:52;98086.69;;;23.23;65.99
26699;BME280;14313;50.892;13.756;2022-10-16T16:10:18;98087.25;;;23.07;65.03
26699;BME280;14313;50.892;13.756;2022-10-16T16:12:47;98094.88;;;22.91;65.09
26699;BME280;14313;50.892;13.756;2022-10-16T16:15:17;98097.22;;;22.57;64.80
26699;BME280;14313;50.892;13.756;2022-10-16T16:17:43;98101.84;;;22.43;65.29
26699;BME280;14313;50.892;13.756;2022-10-16T16:20:09;98109.47;;;22.21;65.16
26699;BME280;14313;50.892;13.756;2022-10-16T16:22:35;98111.78;;;22.11;65.98
26699;BME280;14313;50.892;13.756;2022-10-16T16:25:00;98105.69;;;21.97;66.20
26699;BME280;14313;50.892;13.756;2022-10-16T16:27:26;98111.56;;;21.75;67.08
26699;BME280;14313;50.892;13.756;2022-10-16T16:29:51;98106.22;;;21.68;67.24
26699;BME280;14313;50.892;13.756;2022-10-16T16:32:17;98109.31;;;21.65;67.96
26699;BME280;14313;50.892;13.756;2022-10-16T16:34:42;98110.66;;;21.49;68.44
26699;BME280;14313;50.892;13.756;2022-10-16T16:37:07;98122.00;;;21.45;69.51
26699;BME280;14313;50.892;13.756;2022-10-16T16:39:33;98123.91;;;21.31;71.03
26699;BME280;14313;50.892;13.756;2022-10-16T16:41:58;98134.84;;;21.03;72.15
26699;BME280;14313;50.892;13.756;2022-10-16T16:44:24;98128.88;;;21.01;72.40
26699;BME280;14313;50.892;13.756;2022-10-16T16:46:49;98137.13;;;21.06;72.18
26699;BME280;14313;50.892;13.756;2022-10-16T16:49:15;98142.09;;;21.03;72.13
26699;BME280;14313;50.892;13.756;2022-10-16T16:51:41;98156.34;;;20.90;72.80
26699;BME280;14313;50.892;13.756;2022-10-16T16:54:07;98152.00;;;20.89;72.41
26699;BME280;14313;50.892;13.756;2022-10-16T16:56:32;98157.19;;;20.77;72.71
26699;BME280;14313;50.892;13.756;2022-10-16T16:58:58;98163.97;;;20.80;72.54
26699;BME280;14313;50.892;13.756;2022-10-16T17:01:25;98165.41;;;20.69;72.46
26699;BME280;14313;50.892;13.756;2022-10-16T17:03:53;98171.38;;;20.52;72.74
26699;BME280;14313;50.892;13.756;2022-10-16T17:06:20;98176.91;;;20.37;73.85
26699;BME280;14313;50.892;13.756;2022-10-16T17:08:47;98181.03;;;20.39;73.37
26699;BME280;14313;50.892;13.756;2022-10-16T17:11:16;98185.19;;;20.49;72.24
26699;BME280;14313;50.892;13.756;2022-10-16T17:13:42;98186.84;;;20.50;72.48
26699;BME280;14313;50.892;13.756;2022-10-16T17:16:08;98188.28;;;20.46;71.95
26699;BME280;14313;50.892;13.756;2022-10-16T17:18:34;98185.16;;;20.42;71.23
26699;BME280;14313;50.892;13.756;2022-10-16T17:21:01;98189.50;;;20.43;71.17
26699;BME280;14313;50.892;13.756;2022-10-16T17:23:27;98191.91;;;20.25;72.06
26699;BME280;14313;50.892;13.756;2022-10-16T17:25:53;98192.06;;;20.17;71.68
26699;BME280;14313;50.892;13.756;2022-10-16T17:28:18;98210.78;;;20.04;72.49
26699;BME280;14313;50.892;13.756;2022-10-16T17:30:44;98203.13;;;19.94;72.63
26699;BME280;14313;50.892;13.756;2022-10-16T17:33:11;98213.63;;;19.89;72.97
26699;BME280;14313;50.892;13.756;2022-10-16T17:35:46;98205.88;;;19.66;73.61
26699;BME280;14313;50.892;13.756;2022-10-16T17:38:13;98209.00;;;19.42;74.79
26699;BME280;14313;50.892;13.756;2022-10-16T17:40:39;98204.19;;;19.31;75.28
26699;BME280;14313;50.892;13.756;2022-10-16T17:43:05;98213.59;;;19.20;75.90
26699;BME280;14313;50.892;13.756;2022-10-16T17:45:35;98212.88;;;19.33;74.62
26699;BME280;14313;50.892;13.756;2022-10-16T17:48:01;98218.47;;;19.38;74.46
26699;BME280;14313;50.892;13.756;2022-10-16T17:50:26;98216.81;;;19.37;73.53
26699;BME280;14313;50.892;13.756;2022-10-16T17:52:52;98223.94;;;19.30;73.41
26699;BME280;14313;50.892;13.756;2022-10-16T17:55:17;98220.84;;;19.26;73.45
26699;BME280;14313;50.892;13.756;2022-10-16T17:57:42;98230.88;;;19.17;73.37
26699;BME280;14313;50.892;13.756;2022-10-16T18:00:08;98223.44;;;19.13;73.42
26699;BME280;14313;50.892;13.756;2022-10-16T18:02:34;98236.00;;;19.19;73.42
26699;BME280;14313;50.892;13.756;2022-10-16T18:05:00;98239.59;;;19.05;72.93
26699;BME280;14313;50.892;13.756;2022-10-16T18:07:26;98246.75;;;18.98;73.08
26699;BME280;14313;50.892;13.756;2022-10-16T18:09:51;98242.53;;;18.89;73.35
26699;BME280;14313;50.892;13.756;2022-10-16T18:12:17;98254.81;;;18.83;73.65
26699;BME280;14313;50.892;13.756;2022-10-16T18:14:43;98256.47;;;18.84;73.76
26699;BME280;14313;50.892;13.756;2022-10-16T18:17:08;98260.06;;;18.70;73.37
26699;BME280;14313;50.892;13.756;2022-10-16T18:19:34;98263.16;;;18.73;73.79
26699;BME280;14313;50.892;13.756;2022-10-16T18:21:59;98277.00;;;18.77;74.07
26699;BME280;14313;50.892;13.756;2022-10-16T18:24:25;98265.25;;;18.78;73.66
26699;BME280;14313;50.892;13.756;2022-10-16T18:26:52;98275.59;;;18.81;74.07
26699;BME280;14313;50.892;13.756;2022-10-16T18:29:21;98273.66;;;18.75;73.58
26699;BME280;14313;50.892;13.756;2022-10-16T18:31:47;98269.16;;;18.76;73.43
26699;BME280;14313;50.892;13.756;2022-10-16T18:34:13;98276.47;;;18.67;72.70
26699;BME280;14313;50.892;13.756;2022-10-16T18:36:38;98287.09;;;18.60;73.26
26699;BME280;14313;50.892;13.756;2022-10-16T18:39:05;98284.19;;;18.41;73.75
26699;BME280;14313;50.892;13.756;2022-10-16T18:41:39;98275.69;;;18.37;73.85
26699;BME280;14313;50.892;13.756;2022-10-16T18:44:05;98279.56;;;18.35;73.78
26699;BME280;14313;50.892;13.756;2022-10-16T18:46:31;98288.88;;;18.39;74.41
26699;BME280;14313;50.892;13.756;2022-10-16T18:48:57;98287.72;;;18.48;74.22
26699;BME280;14313;50.892;13.756;2022-10-16T18:51:36;98292.25;;;18.62;74.54
26699;BME280;14313;50.892;13.756;2022-10-16T18:54:05;98286.84;;;18.55;74.29
26699;BME280;14313;50.892;13.756;2022-10-16T18:56:31;98288.09;;;18.59;73.92
26699;BME280;14313;50.892;13.756;2022-10-16T18:59:01;98277.25;;;18.46;75.13
26699;BME280;14313;50.892;13.756;2022-10-16T19:01:29;98283.69;;;18.52;74.89
26699;BME280;14313;50.892;13.756;2022-10-16T19:04:03;98283.78;;;18.44;75.68
26699;BME280;14313;50.892;13.756;2022-10-16T19:06:31;98291.78;;;18.44;75.76
26699;BME280;14313;50.892;13.756;2022-10-16T19:08:57;98290.59;;;18.46;75.84
26699;BME280;14313;50.892;13.756;2022-10-16T19:11:24;98289.81;;;18.52;76.03
26699;BME280;14313;50.892;13.756;2022-10-16T19:13:50;98297.78;;;18.60;76.26
26699;BME280;14313;50.892;13.756;2022-10-16T19:16:22;98300.81;;;18.57;76.38
26699;BME280;14313;50.892;13.756;2022-10-16T19:18:49;98301.16;;;18.69;76.13
26699;BME280;14313;50.892;13.756;2022-10-16T19:21:16;98292.06;;;18.85;75.46
26699;BME280;14313;50.892;13.756;2022-10-16T19:23:42;98285.69;;;18.86;75.44
26699;BME280;14313;50.892;13.756;2022-10-16T19:26:10;98304.78;;;18.83;74.88
26699;BME280;14313;50.892;13.756;2022-10-16T19:28:37;98305.34;;;18.78;75.54
26699;BME280;14313;50.892;13.756;2022-10-16T19:31:05;98300.72;;;18.87;75.36
26699;BME280;14313;50.892;13.756;2022-10-16T19:33:31;98303.75;;;18.84;75.50
26699;BME280;14313;50.892;13.756;2022-10-16T19:36:10;98315.69;;;18.81;75.79
26699;BME280;14313;50.892;13.756;2022-10-16T19:38:37;98317.06;;;18.77;75.91
26699;BME280;14313;50.892;13.756;2022-10-16T19:41:05;98319.88;;;18.90;75.10
26699;BME280;14313;50.892;13.756;2022-10-16T19:43:30;98313.06;;;18.88;74.98
26699;BME280;14313;50.892;13.756;2022-10-16T19:45:56;98316.69;;;18.80;75.60
26699;BME280;14313;50.892;13.756;2022-10-16T19:48:21;98335.31;;;18.73;76.41
26699;BME280;14313;50.892;13.756;2022-10-16T19:50:47;98326.69;;;18.71;75.70
26699;BME280;14313;50.892;13.756;2022-10-16T19:53:12;98324.44;;;18.75;76.31
26699;BME280;14313;50.892;13.756;2022-10-16T19:55:38;98317.34;;;18.67;76.49
26699;BME280;14313;50.892;13.756;2022-10-16T19:58:03;98315.34;;;18.69;76.99
26699;BME280;14313;50.892;13.756;2022-10-16T20:00:28;98324.00;;;18.71;77.36
26699;BME280;14313;50.892;13.756;2022-10-16T20:02:54;98318.66;;;18.71;76.51
26699;BME280;14313;50.892;13.756;2022-10-16T20:05:19;98316.16;;;18.70;76.71
26699;BME280;14313;50.892;13.756;2022-10-16T20:07:44;98323.78;;;18.73;76.52
26699;BME280;14313;50.892;13.756;2022-10-16T20:10:10;98328.31;;;18.72;77.00
26699;BME280;14313;50.892;13.756;2022-10-16T20:12:35;98334.03;;;18.69;76.67
26699;BME280;14313;50.892;13.756;2022-10-16T20:15:00;98333.47;;;18.74;76.67
26699;BME280;14313;50.892;13.756;2022-10-16T20:17:26;98332.97;;;18.85;75.21
26699;BME280;14313;50.892;13.756;2022-10-16T20:19:51;98348.63;;;18.88;76.13